sensor_id;sensor_type;location;lat;lon;timestamp;P1;durP1;ratioP1;P2;durP2;ratioP2
80334;SDS011;69653;52.674;13.574;2023-12-07T00:01:39;29.07;;;12.80;;
80334;SDS011;69653;52.674;13.574;2023-12-07T00:04:05;29.02;;;14.02;;
80334;SDS011;69653;52.674;13.574;2023-12-07T00:06:30;28.33;;;12.73;;
80334;SDS011;69653;52.674;13.574;2023-12-07T00:08:55;25.83;;;12.93;;
80334;SDS011;69653;52.674;13.574;2023-12-07T00:11:21;28.70;;;12.80;;
80334;SDS011;69653;52.674;13.574;2023-12-07T00:13:48;28.88;;;13.10;;
80334;SDS011;69653;52.674;13.574;2023-12-07T00:16:13;28.20;;;13.32;;
80334;SDS011;69653;52.674;13.574;2023-12-07T00:18:39;26.05;;;11.60;;
80334;SDS011;69653;52.674;13.574;2023-12-07T00:21:04;22.63;;;10.73;;
80334;SDS011;69653;52.674;13.574;2023-12-07T00:23:30;26.93;;;11.77;;
80334;SDS011;69653;52.674;13.574;2023-12-07T00:25:55;26.80;;;12.67;;
80334;SDS011;69653;52.674;13.574;2023-12-07T00:28:20;24.10;;;11.97;;
80334;SDS011;69653;52.674;13.574;2023-12-07T00:30:45;25.07;;;13.50;;
80334;SDS011;69653;52.674;13.574;2023-12-07T00:33:11;24.92;;;12.05;;
80334;SDS011;69653;52.674;13.574;2023-12-07T00:35:36;23.80;;;11.40;;
80334;SDS011;69653;52.674;13.574;2023-12-07T00:38:02;23.80;;;11.97;;
80334;SDS011;69653;52.674;13.574;2023-12-07T00:40:27;27.42;;;12.98;;
80334;SDS011;69653;52.674;13.574;2023-12-07T00:42:53;28.30;;;13.67;;
80334;SDS011;69653;52.674;13.574;2023-12-07T00:45:18;26.05;;;12.07;;
80334;SDS011;69653;52.674;13.574;2023-12-07T00:47:43;28.90;;;12.23;;
80334;SDS011;69653;52.674;13.574;2023-12-07T00:50:11;25.77;;;12.75;;
80334;SDS011;69653;52.674;13.574;2023-12-07T00:52:37;27.65;;;13.82;;
80334;SDS011;69653;52.674;13.574;2023-12-07T00:55:03;24.23;;;12.17;;
80334;SDS011;69653;52.674;13.574;2023-12-07T00:57:28;26.25;;;13.90;;
80334;SDS011;69653;52.674;13.574;2023-12-07T00:59:54;28.80;;;12.80;;
80334;SDS011;69653;52.674;13.574;2023-12-07T01:02:19;25.27;;;13.23;;
80334;SDS011;69653;52.674;13.574;2023-12-07T01:04:44;26.60;;;13.97;;
80334;SDS011;69653;52.674;13.574;2023-12-07T01:07:10;26.80;;;12.65;;
80334;SDS011;69653;52.674;13.574;2023-12-07T01:09:35;23.98;;;11.95;;
80334;SDS011;69653;52.674;13.574;2023-12-07T01:12:01;29.25;;;14.35;;
80334;SDS011;69653;52.674;13.574;2023-12-07T01:14:26;28.47;;;13.30;;
80334;SDS011;69653;52.674;13.574;2023-12-07T01:16:51;27.13;;;13.37;;
80334;SDS011;69653;52.674;13.574;2023-12-07T01:19:17;32.75;;;13.57;;
80334;SDS011;69653;52.674;13.574;2023-12-07T01:21:42;28.17;;;14.10;;
80334;SDS011;69653;52.674;13.574;2023-12-07T01:24:08;25.75;;;12.70;;
80334;SDS011;69653;52.674;13.574;2023-12-07T01:26:34;29.58;;;13.95;;
80334;SDS011;69653;52.674;13.574;2023-12-07T01:28:59;28.55;;;13.27;;
80334;SDS011;69653;52.674;13.574;2023-12-07T01:31:25;25.35;;;13.50;;
80334;SDS011;69653;52.674;13.574;2023-12-07T01:33:50;28.03;;;12.97;;
80334;SDS011;69653;52.674;13.574;2023-12-07T01:36:16;30.03;;;14.80;;
80334;SDS011;69653;52.674;13.574;2023-12-07T01:38:41;27.25;;;13.48;;
80334;SDS011;69653;52.674;13.574;2023-12-07T01:41:08;26.58;;;13.10;;
80334;SDS011;69653;52.674;13.574;2023-12-07T01:43:34;27.70;;;14.23;;
80334;SDS011;69653;52.674;13.574;2023-12-07T01:45:59;27.53;;;12.63;;
80334;SDS011;69653;52.674;13.574;2023-12-07T01:48:25;27.48;;;12.65;;
80334;SDS011;69653;52.674;13.574;2023-12-07T01:50:52;27.15;;;12.75;;
80334;SDS011;69653;52.674;13.574;2023-12-07T01:53:18;25.92;;;14.45;;
80334;SDS011;69653;52.674;13.574;2023-12-07T01:55:46;26.10;;;13.40;;
80334;SDS011;69653;52.674;13.574;2023-12-07T01:58:12;27.20;;;13.13;;
80334;SDS011;69653;52.674;13.574;2023-12-07T02:00:41;25.83;;;13.98;;
80334;SDS011;69653;52.674;13.574;2023-12-07T02:03:06;27.13;;;13.43;;
80334;SDS011;69653;52.674;13.574;2023-12-07T02:05:32;30.30;;;13.43;;
80334;SDS011;69653;52.674;13.574;2023-12-07T02:07:58;25.23;;;12.27;;
80334;SDS011;69653;52.674;13.574;2023-12-07T02:10:24;27.00;;;12.75;;
80334;SDS011;69653;52.674;13.574;2023-12-07T02:12:50;28.77;;;13.93;;
80334;SDS011;69653;52.674;13.574;2023-12-07T02:15:18;26.50;;;13.65;;
80334;SDS011;69653;52.674;13.574;2023-12-07T02:17:54;24.70;;;12.98;;
80334;SDS011;69653;52.674;13.574;2023-12-07T02:20:29;25.13;;;12.43;;
80334;SDS011;69653;52.674;13.574;2023-12-07T02:23:03;24.35;;;11.93;;
80334;SDS011;69653;52.674;13.574;2023-12-07T02:25:32;33.55;;;14.15;;
80334;SDS011;69653;52.674;13.574;2023-12-07T02:28:02;28.48;;;12.73;;
80334;SDS011;69653;52.674;13.574;2023-12-07T02:30:28;25.58;;;12.70;;
80334;SDS011;69653;52.674;13.574;2023-12-07T02:32:53;24.67;;;12.55;;
80334;SDS011;69653;52.674;13.574;2023-12-07T02:35:19;27.90;;;14.13;;
80334;SDS011;69653;52.674;13.574;2023-12-07T02:37:45;26.10;;;13.25;;
80334;SDS011;69653;52.674;13.574;2023-12-07T02:40:14;23.58;;;11.77;;
80334;SDS011;69653;52.674;13.574;2023-12-07T02:42:43;24.65;;;13.18;;
80334;SDS011;69653;52.674;13.574;2023-12-07T02:45:09;25.48;;;12.68;;
80334;SDS011;69653;52.674;13.574;2023-12-07T02:47:36;27.05;;;13.23;;
80334;SDS011;69653;52.674;13.574;2023-12-07T02:50:04;28.58;;;14.00;;
80334;SDS011;69653;52.674;13.574;2023-12-07T02:52:31;24.95;;;12.82;;
80334;SDS011;69653;52.674;13.574;2023-12-07T02:54:57;26.88;;;13.48;;
80334;SDS011;69653;52.674;13.574;2023-12-07T02:57:22;30.03;;;12.40;;
80334;SDS011;69653;52.674;13.574;2023-12-07T02:59:47;27.97;;;12.80;;
80334;SDS011;69653;52.674;13.574;2023-12-07T03:02:13;26.20;;;12.63;;
80334;SDS011;69653;52.674;13.574;2023-12-07T03:04:38;27.20;;;13.23;;
80334;SDS011;69653;52.674;13.574;2023-12-07T03:07:04;25.30;;;13.07;;
80334;SDS011;69653;52.674;13.574;2023-12-07T03:09:29;27.02;;;13.27;;
80334;SDS011;69653;52.674;13.574;2023-12-07T03:11:54;26.37;;;12.77;;
80334;SDS011;69653;52.674;13.574;2023-12-07T03:14:20;28.17;;;13.27;;
80334;SDS011;69653;52.674;13.574;2023-12-07T03:16:45;27.33;;;13.63;;
80334;SDS011;69653;52.674;13.574;2023-12-07T03:19:10;27.90;;;12.37;;
80334;SDS011;69653;52.674;13.574;2023-12-07T03:21:39;28.40;;;13.13;;
80334;SDS011;69653;52.674;13.574;2023-12-07T03:24:09;28.27;;;13.60;;
80334;SDS011;69653;52.674;13.574;2023-12-07T03:26:35;26.98;;;13.68;;
80334;SDS011;69653;52.674;13.574;2023-12-07T03:29:00;27.92;;;13.13;;
80334;SDS011;69653;52.674;13.574;2023-12-07T03:31:26;28.15;;;13.20;;
80334;SDS011;69653;52.674;13.574;2023-12-07T03:33:53;28.00;;;14.18;;
80334;SDS011;69653;52.674;13.574;2023-12-07T03:36:18;29.88;;;13.68;;
80334;SDS011;69653;52.674;13.574;2023-12-07T03:38:44;30.37;;;13.67;;
80334;SDS011;69653;52.674;13.574;2023-12-07T03:41:09;27.77;;;12.70;;
80334;SDS011;69653;52.674;13.574;2023-12-07T03:43:34;31.57;;;13.70;;
80334;SDS011;69653;52.674;13.574;2023-12-07T03:46:03;27.33;;;11.60;;
80334;SDS011;69653;52.674;13.574;2023-12-07T03:48:29;24.48;;;12.48;;
80334;SDS011;69653;52.674;13.574;2023-12-07T03:50:54;27.37;;;13.67;;
80334;SDS011;69653;52.674;13.574;2023-12-07T03:53:19;29.93;;;13.77;;
80334;SDS011;69653;52.674;13.574;2023-12-07T03:55:45;28.43;;;13.43;;
80334;SDS011;69653;52.674;13.574;2023-12-07T03:58:10;27.57;;;13.50;;
80334;SDS011;69653;52.674;13.574;2023-12-07T04:00:35;27.63;;;13.70;;
80334;SDS011;69653;52.674;13.574;2023-12-07T04:03:01;28.93;;;14.57;;
80334;SDS011;69653;52.674;13.574;2023-12-07T04:05:26;33.70;;;13.20;;
80334;SDS011;69653;52.674;13.574;2023-12-07T04:07:52;30.92;;;13.23;;
80334;SDS011;69653;52.674;13.574;2023-12-07T04:10:17;32.63;;;14.87;;
80334;SDS011;69653;52.674;13.574;2023-12-07T04:12:43;28.40;;;13.90;;
80334;SDS011;69653;52.674;13.574;2023-12-07T04:15:08;29.93;;;12.77;;
80334;SDS011;69653;52.674;13.574;2023-12-07T04:17:34;30.63;;;14.20;;
80334;SDS011;69653;52.674;13.574;2023-12-07T04:19:59;34.27;;;14.80;;
80334;SDS011;69653;52.674;13.574;2023-12-07T04:22:24;34.23;;;13.70;;
80334;SDS011;69653;52.674;13.574;2023-12-07T04:24:49;31.90;;;14.07;;
80334;SDS011;69653;52.674;13.574;2023-12-07T04:27:15;38.27;;;15.60;;
80334;SDS011;69653;52.674;13.574;2023-12-07T04:29:40;37.23;;;14.80;;
80334;SDS011;69653;52.674;13.574;2023-12-07T04:32:06;32.70;;;14.27;;
80334;SDS011;69653;52.674;13.574;2023-12-07T04:34:32;38.33;;;13.75;;
80334;SDS011;69653;52.674;13.574;2023-12-07T04:36:58;36.75;;;15.25;;
80334;SDS011;69653;52.674;13.574;2023-12-07T04:39:23;33.80;;;13.97;;
80334;SDS011;69653;52.674;13.574;2023-12-07T04:41:48;35.73;;;14.87;;
80334;SDS011;69653;52.674;13.574;2023-12-07T04:44:14;40.20;;;14.10;;
80334;SDS011;69653;52.674;13.574;2023-12-07T04:46:40;32.45;;;13.48;;
80334;SDS011;69653;52.674;13.574;2023-12-07T04:49:07;38.05;;;14.40;;
80334;SDS011;69653;52.674;13.574;2023-12-07T04:51:32;40.65;;;14.85;;
80334;SDS011;69653;52.674;13.574;2023-12-07T04:53:57;39.83;;;14.60;;
80334;SDS011;69653;52.674;13.574;2023-12-07T04:56:23;35.73;;;13.37;;
80334;SDS011;69653;52.674;13.574;2023-12-07T04:58:48;41.95;;;14.95;;
80334;SDS011;69653;52.674;13.574;2023-12-07T05:01:14;40.33;;;14.67;;
80334;SDS011;69653;52.674;13.574;2023-12-07T05:03:39;41.57;;;14.97;;
80334;SDS011;69653;52.674;13.574;2023-12-07T05:06:04;41.07;;;13.07;;
80334;SDS011;69653;52.674;13.574;2023-12-07T05:08:30;40.10;;;13.60;;
80334;SDS011;69653;52.674;13.574;2023-12-07T05:10:56;39.63;;;14.73;;
80334;SDS011;69653;52.674;13.574;2023-12-07T05:13:23;34.28;;;14.57;;
80334;SDS011;69653;52.674;13.574;2023-12-07T05:15:48;42.37;;;14.23;;
80334;SDS011;69653;52.674;13.574;2023-12-07T05:18:13;36.90;;;14.07;;
80334;SDS011;69653;52.674;13.574;2023-12-07T05:20:38;36.03;;;14.03;;
80334;SDS011;69653;52.674;13.574;2023-12-07T05:23:04;36.13;;;12.93;;
80334;SDS011;69653;52.674;13.574;2023-12-07T05:25:31;37.10;;;15.23;;
80334;SDS011;69653;52.674;13.574;2023-12-07T05:27:57;37.35;;;14.55;;
80334;SDS011;69653;52.674;13.574;2023-12-07T05:30:23;38.60;;;14.95;;
80334;SDS011;69653;52.674;13.574;2023-12-07T05:32:48;38.00;;;13.77;;
80334;SDS011;69653;52.674;13.574;2023-12-07T05:35:13;39.30;;;15.30;;
80334;SDS011;69653;52.674;13.574;2023-12-07T05:37:39;40.60;;;14.82;;
80334;SDS011;69653;52.674;13.574;2023-12-07T05:40:04;38.30;;;15.27;;
80334;SDS011;69653;52.674;13.574;2023-12-07T05:42:31;34.72;;;13.18;;
80334;SDS011;69653;52.674;13.574;2023-12-07T05:44:56;38.70;;;13.68;;
80334;SDS011;69653;52.674;13.574;2023-12-07T05:47:21;42.70;;;14.07;;
80334;SDS011;69653;52.674;13.574;2023-12-07T05:49:48;41.85;;;14.60;;
80334;SDS011;69653;52.674;13.574;2023-12-07T05:52:13;35.83;;;14.00;;
80334;SDS011;69653;52.674;13.574;2023-12-07T05:54:39;32.43;;;13.77;;
80334;SDS011;69653;52.674;13.574;2023-12-07T05:57:07;39.88;;;14.15;;
80334;SDS011;69653;52.674;13.574;2023-12-07T05:59:36;40.70;;;14.57;;
80334;SDS011;69653;52.674;13.574;2023-12-07T06:02:03;39.85;;;14.13;;
80334;SDS011;69653;52.674;13.574;2023-12-07T06:04:29;42.30;;;16.30;;
80334;SDS011;69653;52.674;13.574;2023-12-07T06:06:55;38.13;;;13.43;;
80334;SDS011;69653;52.674;13.574;2023-12-07T06:09:20;37.13;;;13.90;;
80334;SDS011;69653;52.674;13.574;2023-12-07T06:11:45;35.63;;;13.83;;
80334;SDS011;69653;52.674;13.574;2023-12-07T06:14:11;40.53;;;14.85;;
80334;SDS011;69653;52.674;13.574;2023-12-07T06:16:36;53.03;;;18.50;;
80334;SDS011;69653;52.674;13.574;2023-12-07T06:19:02;51.17;;;20.43;;
80334;SDS011;69653;52.674;13.574;2023-12-07T06:21:28;53.97;;;18.83;;
80334;SDS011;69653;52.674;13.574;2023-12-07T06:23:55;67.47;;;21.92;;
80334;SDS011;69653;52.674;13.574;2023-12-07T06:26:20;40.70;;;17.20;;
80334;SDS011;69653;52.674;13.574;2023-12-07T06:28:46;45.03;;;17.23;;
80334;SDS011;69653;52.674;13.574;2023-12-07T06:31:12;43.85;;;15.23;;
80334;SDS011;69653;52.674;13.574;2023-12-07T06:33:37;47.58;;;18.20;;
80334;SDS011;69653;52.674;13.574;2023-12-07T06:36:03;40.33;;;15.97;;
80334;SDS011;69653;52.674;13.574;2023-12-07T06:38:29;33.83;;;13.85;;
80334;SDS011;69653;52.674;13.574;2023-12-07T06:40:54;29.95;;;12.52;;
80334;SDS011;69653;52.674;13.574;2023-12-07T06:43:21;35.95;;;14.15;;
80334;SDS011;69653;52.674;13.574;2023-12-07T06:45:47;32.42;;;12.63;;
80334;SDS011;69653;52.674;13.574;2023-12-07T06:48:12;30.63;;;11.63;;
80334;SDS011;69653;52.674;13.574;2023-12-07T06:50:38;31.60;;;13.57;;
80334;SDS011;69653;52.674;13.574;2023-12-07T06:53:04;35.05;;;13.23;;
80334;SDS011;69653;52.674;13.574;2023-12-07T06:55:29;33.97;;;13.02;;
80334;SDS011;69653;52.674;13.574;2023-12-07T06:57:56;36.95;;;14.20;;
80334;SDS011;69653;52.674;13.574;2023-12-07T07:00:21;35.15;;;13.85;;
80334;SDS011;69653;52.674;13.574;2023-12-07T07:02:47;43.10;;;15.00;;
80334;SDS011;69653;52.674;13.574;2023-12-07T07:05:12;37.23;;;13.83;;
80334;SDS011;69653;52.674;13.574;2023-12-07T07:07:38;32.85;;;12.32;;
80334;SDS011;69653;52.674;13.574;2023-12-07T07:10:04;34.22;;;12.93;;
80334;SDS011;69653;52.674;13.574;2023-12-07T07:12:29;35.30;;;14.02;;
80334;SDS011;69653;52.674;13.574;2023-12-07T07:14:55;33.58;;;12.82;;
80334;SDS011;69653;52.674;13.574;2023-12-07T07:17:20;34.80;;;13.80;;
80334;SDS011;69653;52.674;13.574;2023-12-07T07:19:46;35.67;;;12.82;;
80334;SDS011;69653;52.674;13.574;2023-12-07T07:22:11;31.45;;;12.40;;
80334;SDS011;69653;52.674;13.574;2023-12-07T07:24:37;30.23;;;12.00;;
80334;SDS011;69653;52.674;13.574;2023-12-07T07:27:02;32.87;;;13.20;;
80334;SDS011;69653;52.674;13.574;2023-12-07T07:29:28;37.72;;;12.93;;
80334;SDS011;69653;52.674;13.574;2023-12-07T07:31:53;29.73;;;13.00;;
80334;SDS011;69653;52.674;13.574;2023-12-07T07:34:18;33.83;;;13.30;;
80334;SDS011;69653;52.674;13.574;2023-12-07T07:36:44;35.38;;;12.38;;
80334;SDS011;69653;52.674;13.574;2023-12-07T07:39:09;30.90;;;12.13;;
80334;SDS011;69653;52.674;13.574;2023-12-07T07:41:36;34.13;;;13.45;;
80334;SDS011;69653;52.674;13.574;2023-12-07T07:44:01;31.23;;;12.40;;
80334;SDS011;69653;52.674;13.574;2023-12-07T07:46:27;35.88;;;12.38;;
80334;SDS011;69653;52.674;13.574;2023-12-07T07:48:53;34.80;;;13.40;;
80334;SDS011;69653;52.674;13.574;2023-12-07T07:51:18;33.70;;;11.20;;
80334;SDS011;69653;52.674;13.574;2023-12-07T07:53:43;30.30;;;12.37;;
80334;SDS011;69653;52.674;13.574;2023-12-07T07:56:09;33.77;;;13.83;;
80334;SDS011;69653;52.674;13.574;2023-12-07T07:58:34;29.35;;;11.55;;
80334;SDS011;69653;52.674;13.574;2023-12-07T08:01:00;31.80;;;12.95;;
80334;SDS011;69653;52.674;13.574;2023-12-07T08:03:26;31.38;;;12.07;;
80334;SDS011;69653;52.674;13.574;2023-12-07T08:05:51;31.00;;;13.40;;
80334;SDS011;69653;52.674;13.574;2023-12-07T08:08:16;36.47;;;13.67;;
80334;SDS011;69653;52.674;13.574;2023-12-07T08:10:42;33.77;;;12.40;;
80334;SDS011;69653;52.674;13.574;2023-12-07T08:13:07;31.73;;;12.05;;
80334;SDS011;69653;52.674;13.574;2023-12-07T08:15:33;30.23;;;12.80;;
80334;SDS011;69653;52.674;13.574;2023-12-07T08:17:59;34.25;;;12.18;;
80334;SDS011;69653;52.674;13.574;2023-12-07T08:20:24;36.85;;;13.73;;
80334;SDS011;69653;52.674;13.574;2023-12-07T08:22:50;39.70;;;12.55;;
80334;SDS011;69653;52.674;13.574;2023-12-07T08:25:15;35.75;;;11.45;;
80334;SDS011;69653;52.674;13.574;2023-12-07T08:27:42;34.75;;;13.65;;
80334;SDS011;69653;52.674;13.574;2023-12-07T08:30:10;33.33;;;12.50;;
80334;SDS011;69653;52.674;13.574;2023-12-07T08:32:35;31.60;;;13.20;;
80334;SDS011;69653;52.674;13.574;2023-12-07T08:35:02;38.17;;;14.40;;
80334;SDS011;69653;52.674;13.574;2023-12-07T08:37:27;33.03;;;12.70;;
80334;SDS011;69653;52.674;13.574;2023-12-07T08:39:53;37.08;;;14.25;;
80334;SDS011;69653;52.674;13.574;2023-12-07T08:42:19;35.35;;;13.57;;
80334;SDS011;69653;52.674;13.574;2023-12-07T08:44:45;31.40;;;12.27;;
80334;SDS011;69653;52.674;13.574;2023-12-07T08:47:10;34.10;;;12.27;;
80334;SDS011;69653;52.674;13.574;2023-12-07T08:49:35;33.95;;;12.95;;
80334;SDS011;69653;52.674;13.574;2023-12-07T08:52:01;35.42;;;14.35;;
80334;SDS011;69653;52.674;13.574;2023-12-07T08:54:27;30.35;;;10.95;;
80334;SDS011;69653;52.674;13.574;2023-12-07T08:56:52;33.97;;;14.93;;
80334;SDS011;69653;52.674;13.574;2023-12-07T08:59:18;39.13;;;13.33;;
80334;SDS011;69653;52.674;13.574;2023-12-07T09:01:43;37.00;;;13.20;;
80334;SDS011;69653;52.674;13.574;2023-12-07T09:04:08;38.33;;;15.27;;
80334;SDS011;69653;52.674;13.574;2023-12-07T09:06:34;46.03;;;17.02;;
80334;SDS011;69653;52.674;13.574;2023-12-07T09:09:01;48.88;;;18.58;;
80334;SDS011;69653;52.674;13.574;2023-12-07T09:11:28;44.65;;;16.65;;
80334;SDS011;69653;52.674;13.574;2023-12-07T09:13:53;39.47;;;15.50;;
80334;SDS011;69653;52.674;13.574;2023-12-07T09:16:18;31.63;;;13.57;;
80334;SDS011;69653;52.674;13.574;2023-12-07T09:18:44;31.90;;;12.83;;
80334;SDS011;69653;52.674;13.574;2023-12-07T09:21:12;27.65;;;12.32;;
80334;SDS011;69653;52.674;13.574;2023-12-07T09:23:37;30.70;;;12.38;;
80334;SDS011;69653;52.674;13.574;2023-12-07T09:26:03;29.87;;;12.97;;
80334;SDS011;69653;52.674;13.574;2023-12-07T09:28:29;32.58;;;12.15;;
80334;SDS011;69653;52.674;13.574;2023-12-07T09:30:54;29.73;;;12.40;;
80334;SDS011;69653;52.674;13.574;2023-12-07T09:33:19;28.83;;;12.87;;
80334;SDS011;69653;52.674;13.574;2023-12-07T09:35:45;32.83;;;12.10;;
80334;SDS011;69653;52.674;13.574;2023-12-07T09:38:10;34.87;;;13.07;;
80334;SDS011;69653;52.674;13.574;2023-12-07T09:40:36;28.67;;;12.77;;
80334;SDS011;69653;52.674;13.574;2023-12-07T09:43:01;33.25;;;13.63;;
80334;SDS011;69653;52.674;13.574;2023-12-07T09:45:26;29.92;;;12.27;;
80334;SDS011;69653;52.674;13.574;2023-12-07T09:47:52;34.08;;;12.85;;
80334;SDS011;69653;52.674;13.574;2023-12-07T09:50:20;35.22;;;12.50;;
80334;SDS011;69653;52.674;13.574;2023-12-07T09:52:50;33.15;;;13.65;;
80334;SDS011;69653;52.674;13.574;2023-12-07T09:55:17;31.73;;;11.38;;
80334;SDS011;69653;52.674;13.574;2023-12-07T09:57:43;36.25;;;13.77;;
80334;SDS011;69653;52.674;13.574;2023-12-07T10:00:10;31.63;;;12.93;;
80334;SDS011;69653;52.674;13.574;2023-12-07T10:02:39;34.25;;;12.38;;
80334;SDS011;69653;52.674;13.574;2023-12-07T10:05:06;29.38;;;13.13;;
80334;SDS011;69653;52.674;13.574;2023-12-07T10:07:35;30.00;;;12.55;;
80334;SDS011;69653;52.674;13.574;2023-12-07T10:10:02;33.47;;;12.82;;
80334;SDS011;69653;52.674;13.574;2023-12-07T10:12:29;29.27;;;12.30;;
80334;SDS011;69653;52.674;13.574;2023-12-07T10:14:55;33.20;;;13.90;;
80334;SDS011;69653;52.674;13.574;2023-12-07T10:17:21;33.42;;;13.95;;
80334;SDS011;69653;52.674;13.574;2023-12-07T10:19:49;32.30;;;14.63;;
80334;SDS011;69653;52.674;13.574;2023-12-07T10:22:33;32.58;;;12.55;;
80334;SDS011;69653;52.674;13.574;2023-12-07T10:24:59;33.38;;;13.00;;
80334;SDS011;69653;52.674;13.574;2023-12-07T10:27:24;30.17;;;12.77;;
80334;SDS011;69653;52.674;13.574;2023-12-07T10:29:51;28.98;;;13.35;;
80334;SDS011;69653;52.674;13.574;2023-12-07T10:32:16;31.88;;;13.48;;
80334;SDS011;69653;52.674;13.574;2023-12-07T10:34:41;29.97;;;11.73;;
80334;SDS011;69653;52.674;13.574;2023-12-07T10:37:07;26.87;;;11.40;;
80334;SDS011;69653;52.674;13.574;2023-12-07T10:39:32;28.93;;;12.30;;
80334;SDS011;69653;52.674;13.574;2023-12-07T10:41:58;28.48;;;11.85;;
80334;SDS011;69653;52.674;13.574;2023-12-07T10:44:26;30.70;;;12.63;;
80334;SDS011;69653;52.674;13.574;2023-12-07T10:46:54;26.77;;;12.00;;
80334;SDS011;69653;52.674;13.574;2023-12-07T10:49:21;26.60;;;11.05;;
80334;SDS011;69653;52.674;13.574;2023-12-07T10:52:00;24.60;;;10.68;;
80334;SDS011;69653;52.674;13.574;2023-12-07T10:54:46;25.65;;;10.65;;
80334;SDS011;69653;52.674;13.574;2023-12-07T10:57:19;22.45;;;9.90;;
80334;SDS011;69653;52.674;13.574;2023-12-07T10:59:46;24.55;;;11.70;;
80334;SDS011;69653;52.674;13.574;2023-12-07T11:02:15;21.15;;;9.82;;
80334;SDS011;69653;52.674;13.574;2023-12-07T11:04:42;21.83;;;10.48;;
80334;SDS011;69653;52.674;13.574;2023-12-07T11:07:10;22.08;;;10.40;;
80334;SDS011;69653;52.674;13.574;2023-12-07T11:09:42;24.98;;;10.38;;
80334;SDS011;69653;52.674;13.574;2023-12-07T11:12:20;18.90;;;10.10;;
80334;SDS011;69653;52.674;13.574;2023-12-07T11:14:57;24.35;;;10.63;;
80334;SDS011;69653;52.674;13.574;2023-12-07T11:17:23;25.00;;;9.48;;
80334;SDS011;69653;52.674;13.574;2023-12-07T11:19:48;21.40;;;10.13;;
80334;SDS011;69653;52.674;13.574;2023-12-07T11:22:14;22.67;;;10.30;;
80334;SDS011;69653;52.674;13.574;2023-12-07T11:24:56;25.50;;;11.27;;
80334;SDS011;69653;52.674;13.574;2023-12-07T11:27:24;23.88;;;9.93;;
80334;SDS011;69653;52.674;13.574;2023-12-07T11:29:49;24.20;;;10.82;;
80334;SDS011;69653;52.674;13.574;2023-12-07T11:32:15;25.60;;;10.55;;
80334;SDS011;69653;52.674;13.574;2023-12-07T11:34:42;25.05;;;11.05;;
80334;SDS011;69653;52.674;13.574;2023-12-07T11:37:09;23.77;;;11.18;;
80334;SDS011;69653;52.674;13.574;2023-12-07T11:39:42;21.60;;;9.95;;
80334;SDS011;69653;52.674;13.574;2023-12-07T11:44:38;23.65;;;10.35;;
80334;SDS011;69653;52.674;13.574;2023-12-07T11:47:09;20.55;;;9.85;;
80334;SDS011;69653;52.674;13.574;2023-12-07T11:49:35;26.48;;;11.35;;
80334;SDS011;69653;52.674;13.574;2023-12-07T11:52:01;24.67;;;9.98;;
80334;SDS011;69653;52.674;13.574;2023-12-07T11:54:39;19.38;;;10.07;;
80334;SDS011;69653;52.674;13.574;2023-12-07T11:57:05;19.02;;;9.48;;
80334;SDS011;69653;52.674;13.574;2023-12-07T11:59:30;22.40;;;11.00;;
80334;SDS011;69653;52.674;13.574;2023-12-07T12:01:56;24.77;;;9.77;;
80334;SDS011;69653;52.674;13.574;2023-12-07T12:04:24;18.65;;;8.88;;
80334;SDS011;69653;52.674;13.574;2023-12-07T12:06:49;21.93;;;9.80;;
80334;SDS011;69653;52.674;13.574;2023-12-07T12:09:15;23.67;;;11.23;;
80334;SDS011;69653;52.674;13.574;2023-12-07T12:11:46;32.35;;;12.50;;
80334;SDS011;69653;52.674;13.574;2023-12-07T12:14:12;34.30;;;15.30;;
80334;SDS011;69653;52.674;13.574;2023-12-07T12:16:39;33.38;;;13.95;;
80334;SDS011;69653;52.674;13.574;2023-12-07T12:19:05;33.20;;;14.45;;
80334;SDS011;69653;52.674;13.574;2023-12-07T12:21:33;31.03;;;14.10;;
80334;SDS011;69653;52.674;13.574;2023-12-07T12:23:59;24.42;;;10.57;;
80334;SDS011;69653;52.674;13.574;2023-12-07T12:26:24;22.77;;;10.27;;
80334;SDS011;69653;52.674;13.574;2023-12-07T12:28:49;22.67;;;10.50;;
80334;SDS011;69653;52.674;13.574;2023-12-07T12:31:15;21.33;;;10.85;;
80334;SDS011;69653;52.674;13.574;2023-12-07T12:33:40;26.45;;;10.73;;
80334;SDS011;69653;52.674;13.574;2023-12-07T12:36:06;24.57;;;10.60;;
80334;SDS011;69653;52.674;13.574;2023-12-07T12:38:33;26.95;;;11.77;;
80334;SDS011;69653;52.674;13.574;2023-12-07T12:40:58;25.23;;;11.73;;
80334;SDS011;69653;52.674;13.574;2023-12-07T12:43:24;23.08;;;10.57;;
80334;SDS011;69653;52.674;13.574;2023-12-07T12:45:49;23.03;;;11.13;;
80334;SDS011;69653;52.674;13.574;2023-12-07T12:48:15;24.05;;;11.25;;
80334;SDS011;69653;52.674;13.574;2023-12-07T12:50:40;26.40;;;10.77;;
80334;SDS011;69653;52.674;13.574;2023-12-07T12:53:07;24.00;;;9.93;;
80334;SDS011;69653;52.674;13.574;2023-12-07T12:55:35;20.77;;;9.90;;
80334;SDS011;69653;52.674;13.574;2023-12-07T12:58:01;27.20;;;10.80;;
80334;SDS011;69653;52.674;13.574;2023-12-07T13:00:29;24.77;;;10.35;;
80334;SDS011;69653;52.674;13.574;2023-12-07T13:02:56;27.60;;;12.30;;
80334;SDS011;69653;52.674;13.574;2023-12-07T13:05:21;22.27;;;10.32;;
80334;SDS011;69653;52.674;13.574;2023-12-07T13:07:48;29.02;;;10.90;;
80334;SDS011;69653;52.674;13.574;2023-12-07T13:10:14;25.70;;;11.32;;
80334;SDS011;69653;52.674;13.574;2023-12-07T13:12:40;27.30;;;12.57;;
80334;SDS011;69653;52.674;13.574;2023-12-07T13:15:05;24.47;;;11.23;;
80334;SDS011;69653;52.674;13.574;2023-12-07T13:17:31;27.15;;;12.27;;
80334;SDS011;69653;52.674;13.574;2023-12-07T13:19:58;27.98;;;12.80;;
80334;SDS011;69653;52.674;13.574;2023-12-07T13:22:23;25.87;;;12.77;;
80334;SDS011;69653;52.674;13.574;2023-12-07T13:24:48;29.07;;;11.87;;
80334;SDS011;69653;52.674;13.574;2023-12-07T13:27:17;28.10;;;12.52;;
80334;SDS011;69653;52.674;13.574;2023-12-07T13:29:43;31.75;;;13.23;;
80334;SDS011;69653;52.674;13.574;2023-12-07T13:32:08;23.93;;;10.53;;
80334;SDS011;69653;52.674;13.574;2023-12-07T13:34:35;28.48;;;11.80;;
80334;SDS011;69653;52.674;13.574;2023-12-07T13:37:00;31.48;;;12.75;;
80334;SDS011;69653;52.674;13.574;2023-12-07T13:39:25;28.40;;;11.37;;
80334;SDS011;69653;52.674;13.574;2023-12-07T13:41:55;27.88;;;11.73;;
80334;SDS011;69653;52.674;13.574;2023-12-07T13:44:20;29.23;;;12.67;;
80334;SDS011;69653;52.674;13.574;2023-12-07T13:46:46;31.02;;;12.52;;
80334;SDS011;69653;52.674;13.574;2023-12-07T13:49:11;29.88;;;11.65;;
80334;SDS011;69653;52.674;13.574;2023-12-07T13:51:39;30.38;;;12.98;;
80334;SDS011;69653;52.674;13.574;2023-12-07T13:54:04;31.48;;;12.75;;
80334;SDS011;69653;52.674;13.574;2023-12-07T13:56:30;22.27;;;10.97;;
80334;SDS011;69653;52.674;13.574;2023-12-07T13:58:55;27.33;;;12.30;;
80334;SDS011;69653;52.674;13.574;2023-12-07T14:01:21;27.65;;;12.35;;
80334;SDS011;69653;52.674;13.574;2023-12-07T14:03:46;25.63;;;11.98;;
80334;SDS011;69653;52.674;13.574;2023-12-07T14:06:20;26.88;;;11.55;;